createdAt,value
2019-06-08T00:00:27.579Z,100790.63
2019-06-08T00:06:37.799Z,100816.16
2019-06-08T00:12:47.572Z,100824.34
2019-06-08T00:18:57.751Z,100849.12
2019-06-08T00:25:08.322Z,100852.14
2019-06-08T00:31:19.961Z,100856.45
2019-06-08T00:37:05.664Z,100867.39
2019-06-08T00:43:06.969Z,100876.52
2019-06-08T00:49:08.332Z,100908.77
2019-06-08T00:55:09.420Z,100913.14
2019-06-08T00:57:38.880Z,100897.94
2019-06-08T01:00:10.652Z,100912.28
2019-06-08T01:02:39.568Z,100922.36
2019-06-08T01:05:09.186Z,100930.19
2019-06-08T01:07:39.829Z,100932.14
2019-06-08T01:10:10.573Z,100932.14
2019-06-08T01:12:39.979Z,100936.85
2019-06-08T01:15:11.249Z,100945.13
2019-06-08T01:17:40.763Z,100944.28
2019-06-08T01:20:10.416Z,100950.41
2019-06-08T01:22:39.790Z,100949.10
2019-06-08T01:25:09.585Z,100959.08
2019-06-08T01:27:38.905Z,100953.80
2019-06-08T01:30:09.047Z,100950.26
2019-06-08T01:32:38.446Z,100964.01
2019-06-08T01:35:07.889Z,100964.01
2019-06-08T01:37:39.200Z,100971.74
2019-06-08T01:40:09.188Z,100968.17
2019-06-08T01:42:38.534Z,100971.09
2019-06-08T01:45:08.828Z,100973.52
2019-06-08T01:47:38.166Z,100969.09
2019-06-08T01:50:07.870Z,100974.62
2019-06-08T01:52:37.239Z,100977.59
2019-06-08T01:55:06.619Z,100977.14
2019-06-08T01:57:35.999Z,100978.75
2019-06-08T02:00:29.426Z,100980.00
2019-06-08T02:02:37.583Z,100984.67
2019-06-08T02:05:08.469Z,100988.04
2019-06-08T02:07:37.824Z,100985.43
2019-06-08T02:10:07.326Z,100993.56
2019-06-08T02:12:36.682Z,100997.88
2019-06-08T02:15:06.983Z,100991.27
2019-06-08T02:17:36.372Z,100989.05
2019-06-08T02:20:06.332Z,100994.88
2019-06-08T02:22:35.704Z,100994.88
2019-06-08T02:25:05.780Z,100999.64
2019-06-08T02:27:35.771Z,101000.05
2019-06-08T02:30:07.668Z,100995.98
2019-06-08T02:32:37.520Z,100986.50
2019-06-08T02:35:07.321Z,100996.73
2019-06-08T02:37:38.269Z,100996.73
2019-06-08T02:40:08.756Z,100993.61
2019-06-08T02:42:38.137Z,100993.61
2019-06-08T02:45:07.920Z,100995.83
2019-06-08T02:47:37.272Z,100988.84
2019-06-08T02:50:07.167Z,100995.83
2019-06-08T02:52:38.840Z,100993.67
2019-06-08T02:55:09.456Z,100996.28
2019-06-08T02:57:40.067Z,100999.34
2019-06-08T03:00:10.224Z,101010.13
2019-06-08T03:02:42.397Z,101009.19
2019-06-08T03:05:13.367Z,101015.66
2019-06-08T03:07:44.009Z,101015.66
2019-06-08T03:10:13.559Z,101016.66
2019-06-08T03:12:44.572Z,101025.86
2019-06-08T03:15:16.944Z,101025.86
2019-06-08T03:17:46.304Z,101027.16
2019-06-08T03:20:15.759Z,101027.56
2019-06-08T03:22:45.093Z,101034.48
2019-06-08T03:25:14.492Z,101031.78
2019-06-08T03:27:43.824Z,101027.95
2019-06-08T03:30:18.825Z,101032.09
2019-06-08T03:32:50.937Z,101039.83
2019-06-08T03:35:15.416Z,101038.06
2019-06-08T03:37:44.798Z,101037.55
2019-06-08T03:40:14.417Z,101037.55
2019-06-08T03:42:43.788Z,101054.34
2019-06-08T03:45:13.853Z,101054.34
2019-06-08T03:47:44.029Z,101049.66
2019-06-08T03:50:14.394Z,101059.88
2019-06-08T03:52:44.595Z,101063.34
2019-06-08T03:55:14.905Z,101081.10
2019-06-08T03:57:44.264Z,101078.95
2019-06-08T04:00:14.059Z,101085.94
2019-06-08T04:02:44.829Z,101085.94
2019-06-08T04:05:14.485Z,101091.70
2019-06-08T04:07:44.635Z,101098.73
2019-06-08T04:10:15.133Z,101105.27
2019-06-08T04:12:46.168Z,101114.59
2019-06-08T04:15:15.815Z,101114.59
2019-06-08T04:17:46.406Z,101126.80
2019-06-08T04:20:15.895Z,101139.91
2019-06-08T04:22:47.094Z,101151.66
2019-06-08T04:25:17.049Z,101151.66
2019-06-08T04:27:46.965Z,101167.73
2019-06-08T04:30:16.644Z,101167.73
2019-06-08T04:32:47.520Z,101179.39
2019-06-08T04:35:17.058Z,101187.71
2019-06-08T04:37:47.062Z,101187.71
2019-06-08T04:40:16.780Z,101195.86
2019-06-08T04:42:48.789Z,101197.98
2019-06-08T04:45:17.449Z,101214.05
2019-06-08T04:47:48.234Z,101236.25
2019-06-08T04:50:23.399Z,101236.25
2019-06-08T04:52:49.907Z,101241.56
2019-06-08T04:55:19.425Z,101241.08
2019-06-08T04:57:50.771Z,101264.07
2019-06-08T05:00:20.182Z,101253.63
2019-06-08T05:02:51.194Z,101262.77
2019-06-08T05:05:20.700Z,101274.83
2019-06-08T05:07:50.438Z,101293.57
2019-06-08T05:10:19.906Z,101293.57
2019-06-08T05:12:50.207Z,101281.81
2019-06-08T05:15:19.906Z,101294.42
2019-06-08T05:17:49.699Z,101301.80
2019-06-08T05:20:19.274Z,101315.23
2019-06-08T05:22:49.766Z,101315.23
2019-06-08T05:25:19.290Z,101322.16
2019-06-08T05:27:49.559Z,101329.06
2019-06-08T05:30:19.589Z,101343.06
2019-06-08T05:32:49.642Z,101347.83
2019-06-08T05:35:19.546Z,101347.83
2019-06-08T05:37:49.803Z,101347.83
2019-06-08T05:40:19.610Z,101365.27
2019-06-08T05:42:49.978Z,101373.95
2019-06-08T05:45:19.422Z,101372.16
2019-06-08T05:47:50.142Z,101377.38
2019-06-08T05:50:19.569Z,101376.08
2019-06-08T05:52:50.161Z,101384.27
2019-06-08T05:55:19.735Z,101384.27
2019-06-08T05:57:50.434Z,101389.00
2019-06-08T06:00:19.935Z,101401.08
2019-06-08T06:02:49.326Z,101398.41
2019-06-08T06:05:18.777Z,101416.75
2019-06-08T06:07:49.053Z,101416.75
2019-06-08T06:10:18.481Z,101414.00
2019-06-08T06:12:49.055Z,101413.69
2019-06-08T06:15:18.635Z,101430.44
2019-06-08T06:17:48.475Z,101441.89
2019-06-08T06:20:19.340Z,101431.61
2019-06-08T06:22:49.487Z,101431.61
2019-06-08T06:25:19.117Z,101442.16
2019-06-08T06:27:49.621Z,101442.16
2019-06-08T06:30:19.317Z,101442.16
2019-06-08T06:32:50.138Z,101454.95
2019-06-08T06:35:19.735Z,101454.95
2019-06-08T06:37:50.230Z,101476.71
2019-06-08T06:40:19.778Z,101476.71
2019-06-08T06:42:50.028Z,101477.62
2019-06-08T06:45:19.629Z,101490.77
2019-06-08T06:47:50.365Z,101494.15
2019-06-08T06:50:20.237Z,101505.70
2019-06-08T06:52:50.774Z,101505.70
2019-06-08T06:55:20.268Z,101517.41
2019-06-08T06:57:49.630Z,101517.41
2019-06-08T07:00:29.772Z,101529.94
2019-06-08T07:02:59.701Z,101529.94
2019-06-08T07:05:29.045Z,101525.35
2019-06-08T07:07:58.422Z,101534.50
2019-06-08T07:10:27.778Z,101540.58
2019-06-08T07:12:57.169Z,101540.58
2019-06-08T07:15:29.847Z,101543.56
2019-06-08T07:17:59.506Z,101547.44
2019-06-08T07:20:28.846Z,101544.23
2019-06-08T07:22:58.980Z,101550.77
2019-06-08T07:25:28.466Z,101564.16
2019-06-08T07:27:59.308Z,101557.76
2019-06-08T07:30:28.834Z,101580.62
2019-06-08T07:32:59.419Z,101581.52
2019-06-08T07:35:28.981Z,101581.52
2019-06-08T07:37:59.629Z,101584.55
2019-06-08T07:40:29.134Z,101594.59
2019-06-08T07:42:58.504Z,101603.37
2019-06-08T07:45:27.849Z,101603.75
2019-06-08T07:47:57.221Z,101615.78
2019-06-08T07:50:26.668Z,101614.80
2019-06-08T07:52:56.638Z,101623.87
2019-06-08T07:55:26.092Z,101623.87
2019-06-08T07:57:56.283Z,101637.91
2019-06-08T08:00:25.733Z,101637.91
2019-06-08T08:02:56.276Z,101644.80
2019-06-08T08:05:25.753Z,101643.09
2019-06-08T08:07:55.259Z,101658.25
2019-06-08T08:10:24.647Z,101658.25
2019-06-08T08:12:54.742Z,101661.27
2019-06-08T08:15:24.173Z,101669.75
2019-06-08T08:17:53.881Z,101669.88
2019-06-08T08:20:23.315Z,101684.14
2019-06-08T08:22:57.898Z,101688.92
2019-06-08T08:25:25.084Z,101688.92
2019-06-08T08:27:55.875Z,101704.85
2019-06-08T08:30:27.988Z,101704.85
2019-06-08T08:33:01.052Z,101718.78
2019-06-08T08:35:28.076Z,101707.75
2019-06-08T08:38:02.676Z,101733.38
2019-06-08T08:40:28.649Z,101721.06
2019-06-08T08:42:58.758Z,101721.06
2019-06-08T08:45:29.258Z,101721.27
2019-06-08T08:48:17.133Z,101733.38
2019-06-08T08:50:29.768Z,101740.75
2019-06-08T08:53:01.088Z,101751.90
2019-06-08T08:55:30.267Z,101761.64
2019-06-08T08:58:02.035Z,101746.88
2019-06-08T09:00:30.819Z,101764.08
2019-06-08T09:03:22.031Z,101763.87
2019-06-08T09:05:31.428Z,101763.87
2019-06-08T09:08:02.576Z,101759.63
2019-06-08T09:10:31.893Z,101769.23
2019-06-08T09:13:04.461Z,101771.85
2019-06-08T09:15:32.338Z,101767.60
2019-06-08T09:18:03.707Z,101774.70
2019-06-08T09:20:32.877Z,101774.70
2019-06-08T09:23:12.083Z,101798.54
2019-06-08T09:25:33.356Z,101795.26
2019-06-08T09:28:04.735Z,101800.28
2019-06-08T09:30:33.832Z,101801.59
2019-06-08T09:33:04.324Z,101807.29
2019-06-08T09:35:33.646Z,101807.29
2019-06-08T09:38:04.884Z,101799.67
2019-06-08T09:40:34.105Z,101811.97
2019-06-08T09:43:10.425Z,101811.97
2019-06-08T09:45:38.056Z,101798.24
2019-06-08T09:48:09.244Z,101812.52
2019-06-08T09:50:38.579Z,101817.92
2019-06-08T09:53:23.208Z,101817.92
2019-06-08T09:55:41.408Z,101830.14
2019-06-08T09:58:11.856Z,101830.14
2019-06-08T10:00:41.333Z,101828.11
2019-06-08T10:03:10.692Z,101847.00
2019-06-08T10:05:40.060Z,101849.89
2019-06-08T10:08:09.734Z,101849.89
2019-06-08T10:10:39.130Z,101857.21
2019-06-08T10:13:09.703Z,101856.17
2019-06-08T10:15:39.548Z,101857.59
2019-06-08T10:18:08.861Z,101862.03
2019-06-08T10:20:38.446Z,101861.49
2019-06-08T10:23:26.857Z,101857.83
2019-06-08T10:25:39.028Z,101865.69
2019-06-08T10:28:13.998Z,101871.17
2019-06-08T10:30:39.419Z,101872.34
2019-06-08T10:33:10.042Z,101875.09
2019-06-08T10:35:39.596Z,101880.44
2019-06-08T10:38:11.672Z,101879.53
2019-06-08T10:41:05.611Z,101882.47
2019-06-08T10:43:30.107Z,101880.84
2019-06-08T10:46:02.856Z,101893.14
2019-06-08T10:48:31.314Z,101874.29
2019-06-08T10:51:03.750Z,101874.29
2019-06-08T10:53:42.445Z,101884.45
2019-06-08T10:56:04.875Z,101885.80
2019-06-08T10:58:33.912Z,101890.11
2019-06-08T11:01:05.961Z,101909.09
2019-06-08T11:03:34.382Z,101924.16
2019-06-08T11:06:05.772Z,101941.60
2019-06-08T11:08:34.852Z,101909.41
2019-06-08T11:11:05.050Z,101911.13
2019-06-08T11:13:35.259Z,101919.45
2019-06-08T11:16:06.610Z,101926.54
2019-06-08T11:18:35.696Z,101924.78
2019-06-08T11:21:06.433Z,101922.29
2019-06-08T11:23:38.472Z,101921.52
2019-06-08T11:26:13.560Z,101922.34
2019-06-08T11:28:38.434Z,101927.45
2019-06-08T11:31:13.222Z,101935.81
2019-06-08T11:33:39.130Z,101942.23
2019-06-08T11:36:13.575Z,101955.20
2019-06-08T11:38:40.165Z,101947.70
2019-06-08T11:41:12.146Z,101941.72
2019-06-08T11:43:40.614Z,101968.98
2019-06-08T11:46:10.663Z,101967.69
2019-06-08T11:48:41.518Z,101969.17
2019-06-08T11:51:12.997Z,101977.67
2019-06-08T11:53:42.126Z,101965.91
2019-06-08T11:56:13.414Z,101955.84
2019-06-08T11:58:43.836Z,101965.27
2019-06-08T12:01:15.157Z,101957.67
2019-06-08T12:03:44.331Z,101956.58
2019-06-08T12:06:14.539Z,101969.49
2019-06-08T12:08:43.935Z,101955.22
2019-06-08T12:11:18.083Z,101963.59
2019-06-08T12:13:47.387Z,101954.52
2019-06-08T12:16:21.657Z,101952.69
2019-06-08T12:18:49.195Z,101978.51
2019-06-08T12:21:18.814Z,101956.48
2019-06-08T12:23:48.162Z,101953.30
2019-06-08T12:26:17.474Z,101974.07
2019-06-08T12:28:48.683Z,101962.47
2019-06-08T12:31:22.266Z,101959.11
2019-06-08T12:33:48.968Z,101960.56
2019-06-08T12:36:20.699Z,101964.51
2019-06-08T12:38:50.230Z,101960.70
2019-06-08T12:41:19.750Z,101959.52
2019-06-08T12:43:49.105Z,101960.18
2019-06-08T12:46:21.265Z,101961.30
2019-06-08T12:48:49.944Z,101963.94
2019-06-08T12:51:21.299Z,101933.62
2019-06-08T12:53:50.391Z,101933.62
2019-06-08T12:56:24.005Z,101939.31
2019-06-08T12:58:50.878Z,101941.41
2019-06-08T13:01:20.273Z,101928.23
2019-06-08T13:03:49.711Z,101938.83
2019-06-08T13:06:20.067Z,101948.92
2019-06-08T13:08:49.423Z,101939.55
2019-06-08T13:11:19.579Z,101952.27
2019-06-08T13:13:49.880Z,101938.92
2019-06-08T13:16:23.652Z,101957.53
2019-06-08T13:18:50.333Z,101949.92
2019-06-08T13:21:33.334Z,101960.29
2019-06-08T13:23:50.803Z,101944.47
2019-06-08T13:26:27.501Z,101949.06
2019-06-08T13:28:51.396Z,101943.44
2019-06-08T13:31:24.150Z,101947.89
2019-06-08T13:33:51.839Z,101968.38
2019-06-08T13:36:26.152Z,101958.97
2019-06-08T13:38:52.507Z,101954.64
2019-06-08T13:41:26.326Z,101962.84
2019-06-08T13:43:52.901Z,101949.99
2019-06-08T13:46:23.611Z,101959.61
2019-06-08T13:48:53.093Z,101979.74
2019-06-08T13:51:24.107Z,101986.27
2019-06-08T13:53:53.688Z,101991.64
2019-06-08T13:56:24.020Z,101983.44
2019-06-08T13:58:53.484Z,102017.17
2019-06-08T14:01:23.830Z,101979.78
2019-06-08T14:03:53.685Z,101975.83
2019-06-08T14:06:23.738Z,101985.08
2019-06-08T14:08:54.569Z,101978.99
2019-06-08T14:11:25.041Z,101988.69
2019-06-08T14:13:55.102Z,101973.23
2019-06-08T14:16:25.337Z,101974.38
2019-06-08T14:18:55.520Z,101951.27
2019-06-08T14:21:31.948Z,101958.34
2019-06-08T14:23:55.956Z,101956.90
2019-06-08T14:26:26.011Z,101959.07
2019-06-08T14:28:55.370Z,101947.20
2019-06-08T14:31:25.611Z,101956.16
2019-06-08T14:33:55.773Z,101937.79
2019-06-08T14:36:26.647Z,101942.11
2019-06-08T14:39:01.525Z,101963.22
2019-06-08T14:41:31.167Z,101952.03
2019-06-08T14:43:58.668Z,101960.80
2019-06-08T14:46:28.778Z,101969.82
2019-06-08T14:48:58.721Z,101964.35
2019-06-08T14:51:47.956Z,101972.66
2019-06-08T14:54:21.836Z,101976.06
2019-06-08T14:56:48.773Z,101973.98
2019-06-08T14:59:19.868Z,101977.18
2019-06-08T15:01:49.341Z,101997.36
2019-06-08T15:04:23.215Z,102013.11
2019-06-08T15:06:49.747Z,101993.96
2019-06-08T15:09:19.456Z,101998.66
2019-06-08T15:11:49.043Z,102003.02
2019-06-08T15:14:19.427Z,101999.63
2019-06-08T15:16:49.497Z,102006.19
2019-06-08T15:19:20.141Z,102005.16
2019-06-08T15:21:49.587Z,102002.41
2019-06-08T15:24:18.926Z,102017.92
2019-06-08T15:26:48.779Z,102030.12
2019-06-08T15:29:18.419Z,102047.21
2019-06-08T15:31:48.421Z,102053.16
2019-06-08T15:34:18.136Z,102031.52
2019-06-08T15:36:47.802Z,102022.08
2019-06-08T15:39:17.918Z,102023.58
2019-06-08T15:41:48.805Z,102030.10
2019-06-08T15:44:21.302Z,102031.91
2019-06-08T15:46:49.397Z,102030.86
2019-06-08T15:49:18.844Z,102038.25
2019-06-08T15:51:48.295Z,102055.94
2019-06-08T15:54:17.616Z,102049.78
2019-06-08T15:56:51.432Z,102040.69
2019-06-08T15:59:18.096Z,102041.17
2019-06-08T16:01:47.459Z,102034.23
2019-06-08T16:04:16.810Z,102019.73
2019-06-08T16:06:46.278Z,102039.73
2019-06-08T16:09:15.583Z,102039.91
2019-06-08T16:11:44.924Z,102049.25
2019-06-08T16:14:14.260Z,102059.84
2019-06-08T16:16:43.608Z,102086.20
2019-06-08T16:19:13.009Z,102062.16
2019-06-08T16:21:42.356Z,102073.09
2019-06-08T16:24:11.722Z,102051.38
2019-06-08T16:26:52.650Z,102049.67
2019-06-08T16:29:12.246Z,102042.36
2019-06-08T16:31:41.554Z,102033.91
2019-06-08T16:34:10.910Z,102037.97
2019-06-08T16:36:40.300Z,102030.80
2019-06-08T16:39:09.609Z,102050.63
2019-06-08T16:41:40.116Z,102054.39
2019-06-08T16:44:09.780Z,102042.33
2019-06-08T16:46:39.132Z,102048.28
2019-06-08T16:49:08.526Z,102054.50
2019-06-08T16:51:37.956Z,102077.68
2019-06-08T16:54:07.357Z,102061.45
2019-06-08T16:56:36.725Z,102061.28
2019-06-08T16:59:06.126Z,102060.88
2019-06-08T17:01:36.730Z,102060.45
2019-06-08T17:04:06.277Z,102054.88
2019-06-08T17:06:35.683Z,102057.88
2019-06-08T17:09:06.046Z,102077.50
2019-06-08T17:11:37.722Z,102056.09
2019-06-08T17:14:07.087Z,102040.72
2019-06-08T17:16:36.477Z,102055.06
2019-06-08T17:19:05.866Z,102058.62
2019-06-08T17:21:36.349Z,102071.83
2019-06-08T17:24:05.821Z,102069.85
2019-06-08T17:26:36.541Z,102074.98
2019-06-08T17:29:05.994Z,102080.22
2019-06-08T17:31:35.351Z,102089.95
2019-06-08T17:34:04.783Z,102100.45
2019-06-08T17:36:34.293Z,102122.11
2019-06-08T17:39:04.346Z,102120.12
2019-06-08T17:41:34.014Z,102130.63
2019-06-08T17:44:03.365Z,102132.38
2019-06-08T17:46:32.795Z,102137.27
2019-06-08T17:49:02.110Z,102143.41
2019-06-08T17:51:32.717Z,102143.98
2019-06-08T17:54:02.136Z,102145.46
2019-06-08T17:56:32.878Z,102152.50
2019-06-08T17:59:02.459Z,102160.24
2019-06-08T18:01:33.551Z,102166.30
2019-06-08T18:04:02.952Z,102170.16
2019-06-08T18:06:33.574Z,102173.80
2019-06-08T18:09:03.100Z,102159.33
2019-06-08T18:11:32.447Z,102155.14
2019-06-08T18:14:01.789Z,102157.92
2019-06-08T18:16:31.166Z,102151.66
2019-06-08T18:19:00.517Z,102148.87
2019-06-08T18:21:29.847Z,102162.64
2019-06-08T18:23:59.191Z,102165.11
2019-06-08T18:26:28.544Z,102171.69
2019-06-08T18:28:58.253Z,102176.64
2019-06-08T18:31:27.774Z,102194.69
2019-06-08T18:33:57.864Z,102185.78
2019-06-08T18:36:28.254Z,102192.91
2019-06-08T18:38:58.236Z,102200.45
2019-06-08T18:41:27.621Z,102201.55
2019-06-08T18:43:58.349Z,102204.56
2019-06-08T18:46:27.839Z,102216.14
2019-06-08T18:48:57.967Z,102213.89
2019-06-08T18:51:28.082Z,102222.52
2019-06-08T18:54:08.574Z,102228.09
2019-06-08T18:56:28.582Z,102237.17
2019-06-08T18:58:58.382Z,102241.90
2019-06-08T19:01:27.931Z,102241.90
2019-06-08T19:03:57.956Z,102241.72
2019-06-08T19:06:27.911Z,102248.64
2019-06-08T19:08:58.048Z,102257.64
2019-06-08T19:11:28.568Z,102263.61
2019-06-08T19:13:58.178Z,102264.69
2019-06-08T19:16:28.503Z,102268.67
2019-06-08T19:18:58.263Z,102265.68
2019-06-08T19:21:28.360Z,102265.68
2019-06-08T19:23:57.897Z,102235.28
2019-06-08T19:26:28.196Z,102235.28
2019-06-08T19:28:57.957Z,102241.53
2019-06-08T19:31:27.768Z,102249.78
2019-06-08T19:33:58.050Z,102247.36
2019-06-08T19:36:28.502Z,102251.64
2019-06-08T19:38:58.066Z,102251.64
2019-06-08T19:41:28.242Z,102260.10
2019-06-08T19:43:58.447Z,102266.34
2019-06-08T19:46:27.885Z,102265.11
2019-06-08T19:48:59.030Z,102273.16
2019-06-08T19:51:28.581Z,102272.05
2019-06-08T19:53:58.394Z,102281.44
2019-06-08T19:56:28.721Z,102286.36
2019-06-08T19:59:03.937Z,102296.12
2019-06-08T20:01:29.325Z,102304.69
2019-06-08T20:04:01.300Z,102300.67
2019-06-08T20:06:29.800Z,102300.95
2019-06-08T20:08:59.163Z,102308.15
2019-06-08T20:11:29.413Z,102300.89
2019-06-08T20:13:58.878Z,102313.19
2019-06-08T20:16:28.236Z,102312.94
2019-06-08T20:18:58.404Z,102317.77
2019-06-08T20:21:28.036Z,102327.97
2019-06-08T20:23:58.465Z,102329.42
2019-06-08T20:26:28.564Z,102340.94
2019-06-08T20:29:12.065Z,102344.53
2019-06-08T20:31:29.160Z,102353.89
2019-06-08T20:33:58.492Z,102362.36
2019-06-08T20:36:28.882Z,102364.72
2019-06-08T20:38:58.581Z,102371.80
2019-06-08T20:41:27.915Z,102371.45
2019-06-08T20:43:58.011Z,102373.22
2019-06-08T20:46:28.612Z,102373.77
2019-06-08T20:48:58.445Z,102379.02
2019-06-08T20:51:28.042Z,102382.56
2019-06-08T20:53:57.573Z,102385.75
2019-06-08T20:56:28.077Z,102391.96
2019-06-08T20:58:57.605Z,102396.34
2019-06-08T21:01:26.974Z,102402.48
2019-06-08T21:03:57.170Z,102401.62
2019-06-08T21:06:27.979Z,102411.72
2019-06-08T21:08:59.567Z,102411.76
2019-06-08T21:11:28.581Z,102412.69
2019-06-08T21:13:57.966Z,102420.59
2019-06-08T21:16:27.781Z,102418.48
2019-06-08T21:18:57.995Z,102419.87
2019-06-08T21:21:28.298Z,102415.52
2019-06-08T21:24:00.958Z,102413.42
2019-06-08T21:26:30.192Z,102413.45
2019-06-08T21:29:00.428Z,102407.02
2019-06-08T21:31:30.020Z,102410.15
2019-06-08T21:34:00.776Z,102413.28
2019-06-08T21:36:30.403Z,102416.87
2019-06-08T21:39:02.362Z,102415.66
2019-06-08T21:41:30.864Z,102420.91
2019-06-08T21:44:02.007Z,102422.73
2019-06-08T21:46:31.296Z,102426.66
2019-06-08T21:49:00.636Z,102424.08
2019-06-08T21:51:30.079Z,102417.70
2019-06-08T21:54:00.564Z,102426.25
2019-06-08T21:56:29.997Z,102428.77
2019-06-08T21:59:01.019Z,102423.97
2019-06-08T22:01:32.541Z,102424.05
2019-06-08T22:04:02.383Z,102441.77
2019-06-08T22:06:32.004Z,102435.73
2019-06-08T22:09:02.828Z,102434.42
2019-06-08T22:11:32.350Z,102436.11
2019-06-08T22:14:03.031Z,102437.03
2019-06-08T22:16:32.576Z,102439.25
2019-06-08T22:19:03.251Z,102437.52
2019-06-08T22:21:32.724Z,102438.73
2019-06-08T22:24:03.228Z,102442.11
2019-06-08T22:26:32.903Z,102443.42
2019-06-08T22:29:02.226Z,102440.83
2019-06-08T22:31:31.658Z,102433.55
2019-06-08T22:34:02.544Z,102427.05
2019-06-08T22:36:32.059Z,102424.42
2019-06-08T22:39:02.593Z,102426.25
2019-06-08T22:41:32.540Z,102424.14
2019-06-08T22:44:03.098Z,102425.56
2019-06-08T22:46:32.654Z,102424.34
2019-06-08T22:49:02.879Z,102423.66
2019-06-08T22:51:33.086Z,102423.66
2019-06-08T22:54:03.696Z,102419.31
2019-06-08T22:56:33.437Z,102422.45
2019-06-08T22:59:04.738Z,102424.30
2019-06-08T23:01:33.872Z,102426.98
2019-06-08T23:04:04.347Z,102428.69
2019-06-08T23:06:34.422Z,102428.69
2019-06-08T23:09:04.546Z,102422.27
2019-06-08T23:11:34.935Z,102422.27
2019-06-08T23:14:09.066Z,102426.58
2019-06-08T23:16:35.394Z,102419.84
2019-06-08T23:19:05.195Z,102419.84
2019-06-08T23:21:34.664Z,102427.19
2019-06-08T23:24:04.157Z,102431.62
2019-06-08T23:26:33.486Z,102424.32
2019-06-08T23:29:02.848Z,102428.70
2019-06-08T23:31:32.206Z,102427.84
2019-06-08T23:34:04.820Z,102428.70
2019-06-08T23:36:48.548Z,102432.17
2019-06-08T23:39:05.124Z,102429.11
2019-06-08T23:41:34.677Z,102425.55
2019-06-08T23:44:04.042Z,102433.91
2019-06-08T23:46:33.377Z,102433.91
2019-06-08T23:49:04.309Z,102429.70
2019-06-08T23:51:33.859Z,102430.78
2019-06-08T23:54:04.362Z,102430.78
2019-06-08T23:56:34.280Z,102427.45
2019-06-08T23:59:03.606Z,102433.49
